Time;durP1;ratioP1;P1;durP2;ratioP2;P2;SDS_P1;SDS_P2;PMS_P1;PMS_P2;Temp;Humidity;BMP_temperature;BMP_pressure;BME280_temperature;BME280_humidity;BME280_pressure;Samples;Min_cycle;Max_cycle;Signal;HPM_P1;HPM_P2
2023/03/13 00:00:20;;;;;;;18.20;7.90;;;;;;;41.87;27.34;100889.31;6183699;23;20381;-81
2023/03/13 00:02:46;;;;;;;14.87;6.50;;;;;;;41.87;26.84;100875.69;6183613;23;20164;-81
2023/03/13 00:05:12;;;;;;;13.27;6.87;;;;;;;41.89;27.16;100861.75;6183678;23;20435;-81
2023/03/13 00:07:39;;;;;;;12.37;7.37;;;;;;;41.90;27.67;100868.78;6183052;23;20428;-81
2023/03/13 00:10:06;;;;;;;13.30;6.90;;;;;;;41.90;27.99;100866.06;6185554;23;20459;-81
2023/03/13 00:12:32;;;;;;;11.63;6.80;;;;;;;41.91;28.20;100857.53;6183470;23;20439;-78
2023/03/13 00:14:58;;;;;;;18.17;7.63;;;;;;;41.91;27.69;100833.00;6183401;23;20396;-78
2023/03/13 00:17:24;;;;;;;15.27;7.10;;;;;;;41.90;28.02;100825.19;6183521;23;20387;-78
2023/03/13 00:19:50;;;;;;;16.80;7.73;;;;;;;41.99;28.14;100828.59;6183319;23;20416;-78
2023/03/13 00:22:16;;;;;;;10.90;6.50;;;;;;;41.98;27.78;100814.19;6183585;23;20200;-78
2023/03/13 00:24:42;;;;;;;14.33;8.03;;;;;;;42.04;27.66;100821.03;6183308;23;20389;-78
2023/03/13 00:27:08;;;;;;;14.80;7.80;;;;;;;42.02;28.24;100814.31;6183258;23;20176;-78
2023/03/13 00:29:34;;;;;;;18.93;6.60;;;;;;;42.06;28.72;100820.72;6183355;23;20215;-78
2023/03/13 00:32:00;;;;;;;12.40;6.23;;;;;;;42.05;28.48;100817.19;6183485;23;20408;-78
2023/03/13 00:34:27;;;;;;;14.83;6.97;;;;;;;41.97;28.07;100809.09;6185070;23;20719;-81
2023/03/13 00:36:54;;;;;;;15.90;6.93;;;;;;;42.00;28.36;100808.44;6183433;23;20376;-80
2023/03/13 00:39:21;;;;;;;12.70;6.73;;;;;;;42.06;28.50;100802.44;6183252;23;20443;-81
2023/03/13 00:41:47;;;;;;;15.17;7.10;;;;;;;42.03;28.54;100797.63;6183308;23;20411;-81
2023/03/13 00:44:13;;;;;;;12.37;6.83;;;;;;;42.07;28.45;100806.72;6183393;23;20387;-81
2023/03/13 00:46:39;;;;;;;13.60;7.93;;;;;;;42.07;29.02;100805.94;6183236;23;20390;-81
2023/03/13 00:49:05;;;;;;;16.93;8.07;;;;;;;42.05;29.19;100817.19;6182972;23;20500;-80
2023/03/13 00:51:32;;;;;;;17.63;7.33;;;;;;;41.98;29.13;100799.78;6182893;23;20380;-81
2023/03/13 00:53:59;;;;;;;16.07;8.27;;;;;;;42.07;28.39;100808.66;6183388;23;20376;-78
2023/03/13 00:56:26;;;;;;;11.50;6.57;;;;;;;42.06;28.73;100809.81;6183080;23;20450;-78
2023/03/13 00:58:52;;;;;;;15.40;6.57;;;;;;;42.07;28.56;100808.66;6183216;23;20411;-80
2023/03/13 01:01:27;;;;;;;11.70;7.30;;;;;;;41.96;28.81;100821.91;6183351;23;20376;-80
2023/03/13 01:03:58;;;;;;;15.23;7.80;;;;;;;41.97;29.23;100826.22;6182888;23;20391;-80
2023/03/13 01:06:28;;;;;;;17.87;8.70;;;;;;;41.91;28.93;100832.22;6183301;23;20388;-80
2023/03/13 01:08:55;;;;;;;14.43;6.47;;;;;;;41.83;29.10;100826.53;6182846;23;20432;-80
2023/03/13 01:11:29;;;;;;;18.13;7.67;;;;;;;41.96;28.68;100823.84;6183198;23;20385;-80
2023/03/13 01:13:58;;;;;;;15.03;6.43;;;;;;;42.02;28.13;100819.78;6184914;23;20356;-80
2023/03/13 01:16:25;;;;;;;21.90;8.13;;;;;;;41.93;28.76;100813.59;6183190;23;20399;-80
2023/03/13 01:18:56;;;;;;;25.40;7.80;;;;;;;41.78;29.72;100818.53;6183148;23;20380;-80
2023/03/13 01:21:23;;;;;;;23.90;9.27;;;;;;;41.43;30.39;100806.31;6182876;23;20434;-80
2023/03/13 01:23:51;;;;;;;18.50;8.50;;;;;;;40.91;31.44;100809.34;6185178;23;20368;-80
2023/03/13 01:26:17;;;;;;;15.80;8.80;;;;;;;41.00;31.03;100810.09;6183129;23;20857;-80
2023/03/13 01:28:43;;;;;;;21.13;9.93;;;;;;;40.83;31.85;100799.28;6182960;23;20432;-80
2023/03/13 01:31:20;;;;;;;19.63;9.70;;;;;;;40.75;32.34;100793.53;6183266;23;20848;-80
2023/03/13 01:33:47;;;;;;;14.93;8.50;;;;;;;40.77;32.10;100788.59;6183156;23;20733;-80
2023/03/13 01:36:14;;;;;;;17.63;9.30;;;;;;;40.83;32.04;100780.25;6182905;23;20388;-78
2023/03/13 01:38:40;;;;;;;17.67;9.67;;;;;;;40.97;31.91;100767.22;6184593;23;20462;-78
2023/03/13 01:41:07;;;;;;;20.90;8.40;;;;;;;41.00;31.46;100758.38;6184887;23;20408;-78
2023/03/13 01:43:36;;;;;;;18.17;10.57;;;;;;;40.96;31.78;100749.31;6184870;23;20428;-78
2023/03/13 01:46:12;;;;;;;15.60;7.40;;;;;;;41.03;32.06;100749.56;6185087;23;20466;-78
2023/03/13 01:48:54;;;;;;;16.47;9.00;;;;;;;41.06;31.39;100748.91;6184687;23;20517;-78
2023/03/13 01:51:30;;;;;;;19.17;9.03;;;;;;;41.14;31.80;100737.19;6184676;23;20394;-78
2023/03/13 01:54:27;;;;;;;18.20;9.03;;;;;;;41.24;31.49;100727.81;6184860;23;20739;-78
2023/03/13 01:57:05;;;;;;;18.33;9.50;;;;;;;41.31;31.61;100723.44;6184590;23;20454;-78
2023/03/13 01:59:48;;;;;;;21.10;10.70;;;;;;;41.29;31.38;100720.25;6184787;23;20462;-78
2023/03/13 02:02:15;;;;;;;17.57;9.10;;;;;;;41.24;31.86;100709.53;6184745;23;20388;-78
2023/03/13 02:04:47;;;;;;;14.10;8.00;;;;;;;41.20;31.96;100705.13;6184673;23;20388;-78
2023/03/13 02:07:19;;;;;;;15.30;9.07;;;;;;;41.15;31.76;100708.84;6184647;23;20416;-78
2023/03/13 02:09:50;;;;;;;21.30;9.73;;;;;;;41.05;31.58;100710.03;6184559;23;20510;-78
2023/03/13 02:12:32;;;;;;;19.37;11.67;;;;;;;40.99;31.19;100716.00;6184683;23;20483;-78
2023/03/13 02:15:01;;;;;;;20.43;9.90;;;;;;;41.01;31.88;100721.91;6184602;23;20435;-78
2023/03/13 02:17:28;;;;;;;19.17;9.93;;;;;;;40.71;32.06;100721.91;6184709;23;20392;-78
2023/03/13 02:19:54;;;;;;;22.03;9.00;;;;;;;40.72;31.90;100725.44;6184637;23;20403;-78
2023/03/13 02:22:43;;;;;;;13.80;8.70;;;;;;;40.68;31.86;100729.91;6183894;23;20845;-78
2023/03/13 02:25:24;;;;;;;23.87;8.73;;;;;;;40.76;31.73;100732.59;6184415;23;20784;-78
2023/03/13 02:27:50;;;;;;;13.60;9.70;;;;;;;40.82;31.65;100738.63;6186531;23;20407;-78
2023/03/13 02:30:16;;;;;;;22.43;11.60;;;;;;;40.76;31.60;100729.06;6184378;23;20428;-78
2023/03/13 02:32:44;;;;;;;13.87;8.30;;;;;;;40.73;31.53;100729.72;6186592;23;20142;-78
2023/03/13 02:35:13;;;;;;;18.20;8.80;;;;;;;40.75;31.54;100717.38;6184464;23;20423;-78
2023/03/13 02:37:46;;;;;;;14.57;8.00;;;;;;;40.69;31.47;100713.25;6184458;23;20407;-80
2023/03/13 02:40:17;;;;;;;15.77;8.30;;;;;;;40.73;31.90;100718.84;6184363;23;20500;-80
2023/03/13 02:42:44;;;;;;;16.27;9.20;;;;;;;40.81;31.73;100716.06;6184342;23;20416;-80
2023/03/13 02:45:14;;;;;;;16.80;8.97;;;;;;;40.81;31.21;100705.19;6184430;23;20377;-79
2023/03/13 02:47:40;;;;;;;13.20;8.33;;;;;;;40.75;31.25;100711.16;6184059;23;20408;-79
2023/03/13 02:50:08;;;;;;;18.30;9.50;;;;;;;40.75;31.95;100711.16;6184222;23;20438;-78
2023/03/13 02:52:42;;;;;;;14.73;9.90;;;;;;;40.71;31.95;100704.81;6184257;23;20416;-78
2023/03/13 02:55:16;;;;;;;14.90;8.63;;;;;;;40.74;31.55;100710.34;6184332;23;20462;-78
2023/03/13 02:57:43;;;;;;;13.93;8.40;;;;;;;40.73;31.89;100708.78;6184045;23;20475;-78
2023/03/13 03:00:11;;;;;;;13.77;8.60;;;;;;;40.85;32.07;100705.34;6184326;23;20482;-78
2023/03/13 03:02:38;;;;;;;16.87;9.57;;;;;;;40.79;32.37;100718.34;6184349;23;20408;-78
2023/03/13 03:05:05;;;;;;;18.17;8.60;;;;;;;40.82;31.87;100711.44;6184107;23;20380;-78
2023/03/13 03:07:31;;;;;;;20.27;9.10;;;;;;;40.86;32.13;100709.66;6184083;23;20904;-78
2023/03/13 03:09:57;;;;;;;18.90;10.07;;;;;;;40.87;32.17;100707.72;6183553;23;20421;-78
2023/03/13 03:12:23;;;;;;;15.10;7.93;;;;;;;40.85;32.04;100694.47;6184064;23;20160;-78
2023/03/13 03:14:49;;;;;;;21.17;8.77;;;;;;;40.89;32.07;100708.22;6184122;23;20181;-78
2023/03/13 03:17:14;;;;;;;11.97;8.43;;;;;;;40.78;32.04;100702.34;6183932;23;20706;-79
2023/03/13 03:19:40;;;;;;;20.20;9.87;;;;;;;40.78;32.55;100713.22;6184392;23;20376;-80
2023/03/13 03:22:06;;;;;;;18.30;10.30;;;;;;;40.81;32.30;100718.78;6183932;23;20459;-78
2023/03/13 03:24:32;;;;;;;13.90;8.30;;;;;;;40.81;32.16;100705.19;6184048;23;20380;-78
2023/03/13 03:26:58;;;;;;;16.00;8.97;;;;;;;40.86;31.81;100709.66;6183920;23;20560;-78
2023/03/13 03:29:24;;;;;;;16.43;9.90;;;;;;;40.90;32.53;100712.53;6184475;23;20176;-78
2023/03/13 03:31:50;;;;;;;13.00;8.40;;;;;;;40.87;32.02;100705.78;6185881;23;20361;-78
2023/03/13 03:34:16;;;;;;;13.50;6.93;;;;;;;40.89;32.33;100702.78;6183852;23;20387;-78
2023/03/13 03:36:42;;;;;;;14.10;8.00;;;;;;;40.89;32.28;100710.94;6183914;23;20159;-78
2023/03/13 03:39:08;;;;;;;17.10;8.77;;;;;;;40.94;32.27;100705.28;6183827;23;20372;-78
2023/03/13 03:41:36;;;;;;;18.23;10.40;;;;;;;40.91;32.58;100716.84;6183630;23;20210;-78
2023/03/13 03:44:02;;;;;;;17.13;9.27;;;;;;;40.84;32.98;100714.63;6183874;23;20471;-78
2023/03/13 03:46:28;;;;;;;18.00;8.60;;;;;;;40.89;32.89;100716.38;6183703;23;20398;-78
2023/03/13 03:48:54;;;;;;;16.77;9.33;;;;;;;40.92;33.00;100732.03;6184548;23;20459;-78
2023/03/13 03:51:21;;;;;;;14.13;10.87;;;;;;;40.94;32.74;100724.34;6183587;23;20380;-78
2023/03/13 03:53:47;;;;;;;17.00;9.10;;;;;;;40.99;32.98;100726.88;6183589;23;20384;-78
2023/03/13 03:56:13;;;;;;;21.83;10.93;;;;;;;41.03;32.92;100727.81;6183576;23;20766;-78
2023/03/13 03:58:39;;;;;;;17.40;10.17;;;;;;;40.98;33.34;100731.53;6183521;23;20160;-78
2023/03/13 04:01:05;;;;;;;22.60;13.63;;;;;;;40.98;33.60;100728.78;6183294;23;20388;-78
2023/03/13 04:03:31;;;;;;;19.50;10.70;;;;;;;41.02;33.35;100720.78;6183861;23;20467;-79
2023/03/13 04:05:58;;;;;;;24.37;11.63;;;;;;;40.96;33.46;100719.38;6183606;23;20879;-79
2023/03/13 04:08:24;;;;;;;16.57;11.57;;;;;;;40.99;33.76;100726.88;6183458;23;20877;-79
2023/03/13 04:10:51;;;;;;;19.23;10.03;;;;;;;40.95;33.89;100715.06;6183523;23;20396;-79
2023/03/13 04:13:17;;;;;;;19.07;10.40;;;;;;;40.86;34.03;100714.28;6183641;23;20395;-77
2023/03/13 04:15:43;;;;;;;18.30;11.60;;;;;;;40.92;33.88;100724.69;6183779;23;20392;-78
2023/03/13 04:18:09;;;;;;;24.93;11.83;;;;;;;40.92;33.75;100732.03;6183465;23;20389;-78
2023/03/13 04:20:35;;;;;;;15.13;10.00;;;;;;;40.91;33.59;100716.84;6183520;23;20415;-78
2023/03/13 04:23:02;;;;;;;17.03;11.03;;;;;;;40.92;33.52;100721.16;6183566;23;20388;-78
2023/03/13 04:25:28;;;;;;;20.97;10.80;;;;;;;40.91;34.02;100717.66;6183371;23;20388;-78
2023/03/13 04:27:54;;;;;;;15.40;8.60;;;;;;;40.97;33.73;100718.25;6183426;23;20503;-78
2023/03/13 04:30:20;;;;;;;22.57;12.43;;;;;;;40.99;33.78;100724.16;6182692;23;20432;-78
2023/03/13 04:32:45;;;;;;;16.10;10.40;;;;;;;40.97;33.95;100710.88;6183383;23;20510;-78
2023/03/13 04:35:11;;;;;;;17.50;10.07;;;;;;;40.91;34.04;100708.69;6183651;23;20395;-80
2023/03/13 04:37:37;;;;;;;17.23;9.30;;;;;;;40.94;34.31;100722.41;6183332;23;20408;-79
2023/03/13 04:40:04;;;;;;;20.63;10.73;;;;;;;40.95;34.52;100720.53;6183344;23;20391;-80
2023/03/13 04:42:30;;;;;;;19.93;11.03;;;;;;;40.96;33.97;100712.03;6182042;23;20236;-78
2023/03/13 04:44:56;;;;;;;17.40;11.10;;;;;;;40.99;33.86;100713.28;6183720;23;20411;-78
2023/03/13 04:47:21;;;;;;;23.97;10.73;;;;;;;41.03;33.96;100716.94;6183247;23;20384;-78
2023/03/13 04:49:47;;;;;;;20.93;10.43;;;;;;;41.02;34.09;100727.03;6183168;23;20444;-78
2023/03/13 04:52:13;;;;;;;16.70;10.70;;;;;;;41.03;33.59;100728.59;6183328;23;20156;-78
2023/03/13 04:54:39;;;;;;;22.97;12.70;;;;;;;40.89;33.69;100735.41;6183256;23;20555;-78
2023/03/13 04:57:05;;;;;;;19.13;11.73;;;;;;;40.88;33.97;100739.22;6182995;23;20481;-78
2023/03/13 04:59:32;;;;;;;16.87;12.63;;;;;;;40.89;33.80;100733.47;6183303;23;20376;-78
2023/03/13 05:01:58;;;;;;;24.17;13.30;;;;;;;40.90;33.88;100735.09;6183011;23;20408;-78
2023/03/13 05:04:24;;;;;;;22.13;12.47;;;;;;;40.89;34.10;100733.47;6183180;23;20944;-79
2023/03/13 05:06:50;;;;;;;27.27;13.30;;;;;;;40.90;34.38;100737.00;6183538;23;20416;-79
2023/03/13 05:09:16;;;;;;;24.60;12.77;;;;;;;40.92;33.77;100738.28;6183164;23;20924;-79
2023/03/13 05:11:42;;;;;;;21.53;14.13;;;;;;;40.95;34.34;100739.56;6183835;23;20799;-79
2023/03/13 05:14:10;;;;;;;24.17;14.60;;;;;;;40.89;34.46;100738.94;6184789;23;20418;-78
2023/03/13 05:16:37;;;;;;;21.30;14.77;;;;;;;40.89;34.38;100733.47;6185165;23;20538;-78
2023/03/13 05:19:03;;;;;;;21.60;14.30;;;;;;;40.98;34.29;100741.59;6184973;23;20439;-78
2023/03/13 05:21:29;;;;;;;23.27;15.97;;;;;;;41.03;34.00;100742.22;6184978;23;20388;-78
2023/03/13 05:23:55;;;;;;;32.43;18.43;;;;;;;40.94;34.34;100752.34;6184952;23;20156;-79
2023/03/13 05:26:21;;;;;;;33.53;17.47;;;;;;;40.85;34.28;100759.75;6184737;23;20380;-78
2023/03/13 05:28:47;;;;;;;32.37;20.27;;;;;;;40.83;33.98;100759.28;6184495;23;20820;-78
2023/03/13 05:31:13;;;;;;;28.00;20.47;;;;;;;40.85;34.54;100769.81;6184881;23;20152;-78
2023/03/13 05:33:38;;;;;;;27.53;16.87;;;;;;;40.77;33.89;100772.28;6184396;23;20395;-78
2023/03/13 05:36:05;;;;;;;24.47;15.57;;;;;;;40.68;34.04;100776.94;6185315;23;20199;-78
2023/03/13 05:38:31;;;;;;;30.60;15.60;;;;;;;40.61;33.62;100775.88;6184782;23;20504;-78
2023/03/13 05:40:56;;;;;;;24.17;16.00;;;;;;;40.67;33.69;100786.22;6184268;23;20853;-78
2023/03/13 05:43:22;;;;;;;23.30;16.57;;;;;;;40.49;33.96;100790.16;6186654;23;20147;-79
2023/03/13 05:45:48;;;;;;;19.20;14.90;;;;;;;40.53;33.40;100780.22;6184846;23;20391;-78
2023/03/13 05:48:14;;;;;;;29.73;16.97;;;;;;;40.44;33.58;100791.09;6184647;23;20164;-78
2023/03/13 05:50:40;;;;;;;21.97;16.20;;;;;;;40.45;33.82;100794.59;6184642;23;20470;-78
2023/03/13 05:53:06;;;;;;;31.17;17.53;;;;;;;40.44;33.73;100798.44;6184272;23;20165;-82
2023/03/13 05:55:32;;;;;;;28.20;17.93;;;;;;;40.47;33.29;100808.69;6183089;23;20900;-79
2023/03/13 05:57:58;;;;;;;27.60;18.30;;;;;;;40.46;33.50;100804.38;6182297;23;20188;-80
2023/03/13 06:00:24;;;;;;;28.20;17.80;;;;;;;40.46;33.71;100805.16;6179088;23;20562;-80
2023/03/13 06:02:50;;;;;;;26.97;17.77;;;;;;;40.43;33.54;100807.72;6179817;23;20157;-80
2023/03/13 06:05:16;;;;;;;29.90;18.47;;;;;;;40.50;33.20;100808.03;6181235;23;20383;-82
2023/03/13 06:07:42;;;;;;;27.07;18.10;;;;;;;40.50;33.19;100814.28;6182658;23;20186;-81
2023/03/13 06:10:08;;;;;;;31.17;20.50;;;;;;;40.46;32.89;100812.53;6182048;23;20451;-82
2023/03/13 06:12:34;;;;;;;26.37;17.90;;;;;;;40.53;32.62;100818.28;6180801;23;20524;-81
2023/03/13 06:15:01;;;;;;;34.20;18.53;;;;;;;40.49;32.79;100828.19;6180961;23;20416;-82
2023/03/13 06:17:27;;;;;;;40.97;20.83;;;;;;;40.42;33.10;100827.88;6183941;23;20408;-83
2023/03/13 06:19:52;;;;;;;42.57;20.57;;;;;;;40.52;33.15;100838.44;6183623;23;20404;-85
2023/03/13 06:22:18;;;;;;;34.60;20.90;;;;;;;40.58;33.01;100845.31;6183755;23;20722;-81
2023/03/13 06:24:45;;;;;;;28.43;19.00;;;;;;;40.57;32.46;100851.84;6183979;23;20380;-81
2023/03/13 06:27:11;;;;;;;29.63;18.47;;;;;;;40.51;32.62;100864.00;6183724;23;20391;-82
2023/03/13 06:29:37;;;;;;;24.20;17.43;;;;;;;40.43;33.19;100864.81;6184447;23;20423;-80
2023/03/13 06:32:03;;;;;;;30.90;19.40;;;;;;;40.48;32.83;100872.84;6183822;23;20388;-81
2023/03/13 06:34:29;;;;;;;35.83;18.50;;;;;;;40.51;32.30;100881.13;6184029;23;20400;-79
2023/03/13 06:36:57;;;;;;;25.93;15.83;;;;;;;40.37;32.50;100885.13;6184132;23;20438;-80
2023/03/13 06:39:23;;;;;;;29.50;17.33;;;;;;;40.47;32.76;100888.34;6183965;23;20263;-80
2023/03/13 06:41:49;;;;;;;32.50;21.87;;;;;;;40.39;32.81;100888.31;6184036;23;20384;-80
2023/03/13 06:44:15;;;;;;;36.83;20.27;;;;;;;40.39;33.08;100900.00;6185662;23;20400;-80
2023/03/13 06:46:41;;;;;;;33.60;21.00;;;;;;;40.28;32.92;100899.53;6183825;23;20153;-80
2023/03/13 06:49:07;;;;;;;34.30;20.60;;;;;;;40.38;32.41;100908.47;6182828;23;20769;-79
2023/03/13 06:51:33;;;;;;;43.00;24.37;;;;;;;40.35;32.75;100909.13;6181007;23;20415;-79
2023/03/13 06:54:02;;;;;;;37.13;21.40;;;;;;;40.47;32.26;100907.38;6180478;23;20407;-80
2023/03/13 06:56:28;;;;;;;34.67;21.23;;;;;;;40.55;32.24;100892.16;6181624;23;20571;-79
2023/03/13 06:58:54;;;;;;;36.33;19.70;;;;;;;40.54;32.04;100909.59;6181157;23;20381;-79
2023/03/13 07:01:20;;;;;;;27.50;19.40;;;;;;;40.59;31.73;100914.88;6182117;23;20816;-79
2023/03/13 07:03:47;;;;;;;40.97;19.07;;;;;;;40.64;32.05;100913.88;6182548;23;20907;-80
2023/03/13 07:06:14;;;;;;;24.00;18.47;;;;;;;40.62;31.87;100916.13;6183656;23;20389;-79
2023/03/13 07:08:40;;;;;;;27.40;17.23;;;;;;;40.67;32.12;100916.75;6183940;23;20785;-79
2023/03/13 07:11:09;;;;;;;26.93;17.13;;;;;;;40.72;31.43;100924.75;6184003;23;20380;-79
2023/03/13 07:13:35;;;;;;;37.20;19.97;;;;;;;40.67;31.90;100938.50;6183797;23;20845;-80
2023/03/13 07:16:07;;;;;;;25.97;18.87;;;;;;;40.68;31.75;100936.59;6184026;23;20408;-79
2023/03/13 07:18:33;;;;;;;39.70;22.87;;;;;;;40.68;31.38;100942.81;6184129;23;20381;-80
2023/03/13 07:21:05;;;;;;;30.70;18.73;;;;;;;40.69;31.12;100944.41;6183329;23;20384;-79
2023/03/13 07:23:33;;;;;;;37.07;20.80;;;;;;;40.72;31.35;100951.94;6182653;23;20464;-79
2023/03/13 07:26:01;;;;;;;36.37;23.07;;;;;;;40.67;31.56;100959.47;6182706;23;20405;-79
2023/03/13 07:28:29;;;;;;;38.17;19.23;;;;;;;40.71;30.65;100963.94;6182415;23;20380;-79
2023/03/13 07:31:06;;;;;;;33.93;20.50;;;;;;;40.67;30.96;100962.19;6182519;23;20376;-79
2023/03/13 07:33:32;;;;;;;41.47;20.10;;;;;;;40.59;30.74;100963.81;6182370;23;20714;-81
2023/03/13 07:35:58;;;;;;;55.03;22.03;;;;;;;40.57;30.87;100966.03;6182502;23;20888;-81
2023/03/13 07:38:24;;;;;;;34.20;20.20;;;;;;;40.72;30.70;100972.91;6182512;23;20459;-81
2023/03/13 07:40:52;;;;;;;36.93;20.87;;;;;;;40.80;30.87;100977.53;6182600;23;20396;-81
2023/03/13 07:43:19;;;;;;;41.27;23.00;;;;;;;40.88;30.61;100978.63;6182537;23;20463;-84
2023/03/13 07:45:57;;;;;;;37.43;21.40;;;;;;;40.70;30.54;100988.72;6182611;23;20393;-81
2023/03/13 07:48:24;;;;;;;33.83;20.73;;;;;;;40.71;30.61;100988.44;6182391;23;20384;-81
2023/03/13 07:50:51;;;;;;;33.13;22.83;;;;;;;40.78;30.76;100991.44;6182037;23;20733;-82
2023/03/13 07:53:20;;;;;;;33.53;23.80;;;;;;;40.74;30.41;100989.69;6182374;23;20768;-81
2023/03/13 07:56:00;;;;;;;36.03;23.33;;;;;;;40.74;30.41;100997.84;6186352;23;20392;-81
2023/03/13 07:58:28;;;;;;;30.83;19.70;;;;;;;40.85;30.19;101003.75;6187260;23;20462;-81
2023/03/13 08:00:55;;;;;;;36.17;21.90;;;;;;;40.82;29.91;101007.91;6187052;23;20383;-81
2023/03/13 08:03:22;;;;;;;29.53;20.57;;;;;;;40.89;29.62;101004.72;6214735;23;20440;-81
2023/03/13 08:06:03;;;;;;;31.00;20.50;;;;;;;40.72;30.03;101013.72;6187274;23;20458;-80
2023/03/13 08:08:29;;;;;;;32.13;21.80;;;;;;;40.67;29.93;101006.50;6186973;23;20846;-81
2023/03/13 08:11:08;;;;;;;37.83;21.73;;;;;;;40.72;29.99;101019.94;6187060;23;20855;-81
2023/03/13 08:13:35;;;;;;;46.27;24.33;;;;;;;40.80;29.56;101016.41;6187860;23;20840;-81
2023/03/13 08:16:14;;;;;;;40.93;27.20;;;;;;;40.77;29.87;101006.19;6188465;23;20387;-82
2023/03/13 08:18:42;;;;;;;38.03;24.07;;;;;;;40.71;30.36;101009.38;6188544;23;20458;-82
2023/03/13 08:21:14;;;;;;;37.13;19.83;;;;;;;40.70;29.89;100996.88;6188553;23;20411;-80
2023/03/13 08:23:40;;;;;;;28.30;17.67;;;;;;;40.76;30.22;101011.91;6188361;23;20390;-81
2023/03/13 08:26:07;;;;;;;36.50;22.37;;;;;;;40.92;30.13;101010.34;6188315;23;20380;-80
2023/03/13 08:28:34;;;;;;;31.97;20.50;;;;;;;40.84;30.16;101011.13;6187946;23;20379;-80
2023/03/13 08:31:15;;;;;;;31.10;21.77;;;;;;;40.83;30.08;101008.72;6188376;23;20384;-80
2023/03/13 08:33:45;;;;;;;54.10;22.10;;;;;;;40.87;30.37;101012.38;6188270;23;20387;-78
2023/03/13 08:36:36;;;;;;;37.50;24.40;;;;;;;40.73;30.33;101026.97;6188165;23;20776;-79
2023/03/13 08:39:14;;;;;;;55.50;52.80;;;;;;;40.86;30.62;101014.31;6199101;23;20392;-80
2023/03/13 08:41:40;;;;;;;40.63;37.27;;;;;;;41.04;32.12;101015.91;6188887;23;20406;-86
2023/03/13 08:44:09;;;;;;;40.10;38.10;;;;;;;41.09;30.51;101020.38;6188270;23;20387;-85
2023/03/13 08:46:36;;;;;;;41.50;39.50;;;;;;;41.24;30.32;101030.72;6188766;23;20775;-85
2023/03/13 08:49:04;;;;;;;40.77;38.77;;;;;;;41.31;30.22;101033.75;6188185;23;20446;-85
2023/03/13 08:51:30;;;;;;;44.27;40.97;;;;;;;41.40;30.33;101030.22;6189227;23;20382;-85
2023/03/13 08:53:56;;;;;;;45.60;39.90;;;;;;;41.49;30.39;101022.81;6188905;23;20415;-85
2023/03/13 08:56:25;;;;;;;40.20;38.20;;;;;;;41.65;30.53;101040.22;6184505;23;20519;-85
2023/03/13 08:58:52;;;;;;;37.57;35.77;;;;;;;41.65;30.72;101045.66;6185910;23;20384;-83
2023/03/13 09:01:20;;;;;;;38.43;36.57;;;;;;;41.64;30.89;101046.00;6183937;23;20415;-83
2023/03/13 09:03:47;;;;;;;34.97;33.07;;;;;;;41.65;30.64;101048.38;6184068;23;20468;-80
2023/03/13 09:06:13;;;;;;;34.83;33.13;;;;;;;41.46;31.27;101050.72;6183954;23;20388;-83
2023/03/13 09:08:39;;;;;;;38.60;33.07;;;;;;;41.63;31.13;101045.19;6183828;23;20876;-87
2023/03/13 09:11:09;;;;;;;46.13;38.37;;;;;;;41.66;31.28;101055.41;6183445;23;20389;-85
2023/03/13 09:13:38;;;;;;;38.10;36.23;;;;;;;41.44;31.78;101059.22;6183265;23;20384;-85
2023/03/13 09:16:10;;;;;;;33.60;20.40;;;;;;;41.59;31.56;101055.13;6183504;23;20411;-84
2023/03/13 09:18:37;;;;;;;25.07;17.80;;;;;;;41.57;31.97;101057.41;6183658;23;20470;-84
2023/03/13 09:21:07;;;;;;;27.07;17.80;;;;;;;41.62;31.74;101049.06;6183087;23;20407;-85
2023/03/13 09:23:33;;;;;;;34.30;20.10;;;;;;;41.54;31.80;101052.59;6183146;23;20389;-85
2023/03/13 09:25:59;;;;;;;24.80;17.30;;;;;;;41.66;31.60;101049.97;6183943;23;20391;-83
2023/03/13 09:28:26;;;;;;;28.23;19.77;;;;;;;41.76;31.96;101055.09;6182926;23;20728;-80
2023/03/13 09:30:53;;;;;;;29.80;19.80;;;;;;;41.90;31.86;101052.13;6183074;23;20486;-80
2023/03/13 09:33:22;;;;;;;25.10;17.67;;;;;;;41.83;31.93;101065.47;6183163;23;20427;-80
2023/03/13 09:35:51;;;;;;;35.47;16.63;;;;;;;42.00;32.14;101059.13;6182931;23;20392;-82
2023/03/13 09:38:20;;;;;;;25.23;14.40;;;;;;;41.92;32.58;101070.84;6183030;23;20419;-82
2023/03/13 09:40:48;;;;;;;22.27;14.77;;;;;;;42.07;32.32;101062.91;6183001;23;20856;-82
2023/03/13 09:43:38;;;;;;;28.20;16.60;;;;;;;41.98;32.16;101059.44;6182341;23;20415;-81
2023/03/13 09:46:08;;;;;;;30.87;16.33;;;;;;;41.93;32.63;101053.38;6182611;23;20534;-83
2023/03/13 09:48:45;;;;;;;27.90;14.30;;;;;;;42.14;32.12;101062.41;6182946;23;20392;-82
2023/03/13 09:51:17;;;;;;;25.13;16.23;;;;;;;42.31;32.01;101065.03;6182942;23;20387;-79
2023/03/13 09:53:55;;;;;;;24.43;15.47;;;;;;;42.18;32.62;101063.38;6183197;23;20442;-80
2023/03/13 09:56:55;;;;;;;34.73;19.20;;;;;;;42.05;32.90;101056.19;6182832;23;20451;-81
2023/03/13 09:59:45;;;;;;;30.60;16.80;;;;;;;41.73;33.42;101063.88;6182321;23;20380;-83
2023/03/13 10:02:31;;;;;;;24.43;14.60;;;;;;;42.11;33.29;101058.41;6184144;23;20396;-82
2023/03/13 10:05:25;;;;;;;18.30;11.17;;;;;;;42.00;33.29;101059.94;6184572;23;20868;-83
2023/03/13 10:07:56;;;;;;;19.57;11.97;;;;;;;42.28;32.73;101053.97;6181870;23;20399;-84
2023/03/13 10:10:42;;;;;;;20.17;12.37;;;;;;;42.17;33.12;101052.78;6183957;23;20983;-82
2023/03/13 10:13:34;;;;;;;19.60;12.00;;;;;;;42.31;33.12;101051.41;6184366;23;20388;-83
2023/03/13 10:16:05;;;;;;;19.50;10.13;;;;;;;42.39;32.92;101047.81;6184216;23;20510;-83
2023/03/13 10:18:32;;;;;;;18.77;11.10;;;;;;;42.25;32.75;101041.81;6184252;23;20474;-82
2023/03/13 10:21:02;;;;;;;16.20;11.43;;;;;;;42.40;32.93;101037.69;6184461;23;20454;-81
2023/03/13 10:23:48;;;;;;;20.87;10.53;;;;;;;42.25;33.21;101036.38;6184088;23;20389;-80
2023/03/13 10:26:25;;;;;;;21.67;10.67;;;;;;;42.23;32.65;101024.19;6184217;23;20388;-81
2023/03/13 10:28:52;;;;;;;15.47;10.37;;;;;;;42.35;32.87;101027.78;6183845;23;20435;-81
2023/03/13 10:31:48;;;;;;;17.93;10.20;;;;;;;42.45;32.83;101021.13;6184139;23;20391;-81
2023/03/13 10:34:14;;;;;;;18.33;11.20;;;;;;;42.48;32.68;101015.03;6183032;23;20487;-81
2023/03/13 10:36:49;;;;;;;20.13;12.63;;;;;;;42.58;32.60;101022.81;6184003;23;20773;-81
2023/03/13 10:39:18;;;;;;;18.63;10.27;;;;;;;42.44;32.76;101025.00;6182999;23;20176;-81
2023/03/13 10:41:44;;;;;;;15.30;10.90;;;;;;;42.56;32.77;101025.03;6182984;23;20388;-81
2023/03/13 10:44:19;;;;;;;22.50;11.47;;;;;;;42.56;32.60;101025.03;6183697;23;20397;-82
2023/03/13 10:46:47;;;;;;;18.07;12.03;;;;;;;42.51;33.03;101024.44;6182545;23;20415;-81
2023/03/13 10:49:23;;;;;;;25.50;11.90;;;;;;;42.43;33.01;101009.75;6183415;23;20441;-81
2023/03/13 10:51:54;;;;;;;17.90;11.87;;;;;;;42.61;33.01;101013.97;6183678;23;20479;-82
2023/03/13 10:54:22;;;;;;;19.97;12.97;;;;;;;42.72;32.76;101019.78;6183028;23;20412;-80
2023/03/13 10:56:50;;;;;;;19.50;10.63;;;;;;;42.68;32.63;100998.97;6199465;23;20465;-79
2023/03/13 10:59:26;;;;;;;22.43;12.37;;;;;;;42.47;33.05;101013.41;6187679;23;20387;-82
2023/03/13 11:02:00;;;;;;;19.90;12.60;;;;;;;42.61;32.53;101007.72;6187774;23;20411;-80
2023/03/13 11:04:32;;;;;;;18.57;11.43;;;;;;;42.43;33.18;101000.78;6187654;23;20398;-79
2023/03/13 11:07:39;;;;;;;21.50;10.73;;;;;;;42.69;33.00;100995.13;6188596;23;20445;-77
2023/03/13 11:10:23;;;;;;;19.53;9.90;;;;;;;42.55;33.03;101000.84;6185831;23;20450;-77
2023/03/13 11:12:54;;;;;;;15.67;10.67;;;;;;;42.57;32.86;100993.94;6189153;23;20419;-77
2023/03/13 11:15:29;;;;;;;15.10;10.10;;;;;;;42.58;33.02;100992.78;6188895;23;20529;-77
2023/03/13 11:18:15;;;;;;;18.07;9.70;;;;;;;42.38;33.10;100986.22;6215325;23;20793;-82
2023/03/13 11:20:45;;;;;;;15.17;8.57;;;;;;;42.56;33.22;100977.88;6167651;23;20391;-79